Time;durP1;ratioP1;P1;durP2;ratioP2;P2;SDS_P1;SDS_P2;PMS_P1;PMS_P2;Temp;Humidity;BMP_temperature;BMP_pressure;BME280_temperature;BME280_humidity;BME280_pressure;Samples;Min_cycle;Max_cycle;Signal;HPM_P1;HPM_P2
2023/06/19 00:01:46;;;;;;;3.78;3.17;;;;;;;25.38;43.66;96649.06;5034516;28;20025;-26
2023/06/19 00:04:11;;;;;;;5.38;2.80;;;;;;;25.54;43.27;96649.41;5033551;28;20067;-26
2023/06/19 00:06:37;;;;;;;5.38;2.90;;;;;;;25.58;43.21;96641.53;5033738;28;20402;-27
2023/06/19 00:09:03;;;;;;;3.80;3.17;;;;;;;25.69;42.94;96642.19;5033641;28;20025;-26
2023/06/19 00:11:29;;;;;;;4.93;3.35;;;;;;;25.58;42.77;96650.63;5039033;28;20048;-26
2023/06/19 00:13:55;;;;;;;3.53;2.50;;;;;;;25.57;42.93;96660.22;5034575;28;20513;-26
2023/06/19 00:16:20;;;;;;;5.75;3.10;;;;;;;25.41;43.22;96663.91;5043190;28;20025;-26
2023/06/19 00:18:46;;;;;;;3.30;2.55;;;;;;;25.57;42.90;96659.47;5033811;28;20025;-29
2023/06/19 00:21:12;;;;;;;3.83;2.78;;;;;;;25.42;42.94;96662.66;5033373;28;20071;-26
2023/06/19 00:23:37;;;;;;;3.28;2.80;;;;;;;25.37;43.27;96664.19;5033462;28;20025;-26
2023/06/19 00:26:03;;;;;;;3.47;2.92;;;;;;;25.44;42.94;96662.13;5033369;28;20025;-27
2023/06/19 00:28:32;;;;;;;3.60;3.17;;;;;;;25.51;42.64;96661.53;5033579;28;20430;-27
2023/06/19 00:30:57;;;;;;;5.15;2.97;;;;;;;25.51;42.54;96665.06;5033248;28;20025;-26
2023/06/19 00:33:23;;;;;;;4.28;3.55;;;;;;;25.51;42.85;96667.09;5032987;28;20418;-26
2023/06/19 00:35:52;;;;;;;3.65;2.75;;;;;;;25.56;42.70;96661.50;5033624;28;20029;-26
2023/06/19 00:38:20;;;;;;;4.05;2.75;;;;;;;25.52;42.95;96668.59;5041096;28;20043;-26
2023/06/19 00:40:45;;;;;;;3.92;3.15;;;;;;;25.49;42.81;96675.19;5032948;28;20056;-26
2023/06/19 00:43:11;;;;;;;5.20;3.28;;;;;;;25.58;42.26;96677.66;5033816;28;20021;-26
2023/06/19 00:45:36;;;;;;;6.63;3.22;;;;;;;25.46;42.32;96679.78;5033981;28;20099;-26
2023/06/19 00:48:03;;;;;;;3.22;2.70;;;;;;;25.48;41.33;96680.00;5037330;28;20471;-26
2023/06/19 00:50:30;;;;;;;3.28;2.95;;;;;;;25.54;40.26;96672.38;5037438;28;20175;-26
2023/06/19 00:52:55;;;;;;;4.10;2.90;;;;;;;25.50;40.24;96685.03;5037103;28;20471;-26
2023/06/19 00:55:21;;;;;;;5.03;2.80;;;;;;;25.35;39.49;96688.94;5037412;28;20029;-26
2023/06/19 00:57:49;;;;;;;5.72;3.28;;;;;;;25.50;38.49;96699.66;5037040;28;20021;-26
2023/06/19 01:00:14;;;;;;;3.45;2.63;;;;;;;25.47;38.02;96699.97;5036967;28;20024;-27
2023/06/19 01:02:40;;;;;;;2.97;2.65;;;;;;;25.45;37.12;96699.75;5040831;28;20020;-26
2023/06/19 01:05:05;;;;;;;5.93;2.83;;;;;;;25.49;37.07;96709.28;5037048;28;20108;-27
2023/06/19 01:07:40;;;;;;;2.80;2.55;;;;;;;25.38;36.80;96698.28;5037161;28;20031;-27
2023/06/19 01:10:08;;;;;;;5.95;2.75;;;;;;;25.53;36.42;96706.22;5044487;28;20079;-26
2023/06/19 01:12:38;;;;;;;3.42;2.42;;;;;;;25.50;36.24;96698.91;5036851;28;20414;-26
2023/06/19 01:15:05;;;;;;;4.68;2.72;;;;;;;25.58;36.20;96706.16;5036615;28;20029;-26
2023/06/19 01:17:31;;;;;;;3.40;2.65;;;;;;;25.48;36.89;96707.00;5036763;28;20116;-27
2023/06/19 01:19:58;;;;;;;3.65;2.50;;;;;;;25.54;36.77;96699.38;5036624;28;20037;-27
2023/06/19 01:22:27;;;;;;;4.32;2.97;;;;;;;25.45;37.18;96706.03;5036320;28;20021;-26
2023/06/19 01:24:52;;;;;;;5.47;2.28;;;;;;;25.55;36.59;96701.66;5036772;28;20044;-26
2023/06/19 01:27:18;;;;;;;2.80;2.47;;;;;;;25.48;36.57;96701.47;5036964;28;20029;-27
2023/06/19 01:29:43;;;;;;;3.20;2.50;;;;;;;25.49;36.79;96692.59;5036623;28;20028;-27
2023/06/19 01:32:31;;;;;;;4.97;2.40;;;;;;;25.31;36.28;96704.41;5036175;28;20052;-27
2023/06/19 01:34:59;;;;;;;2.50;2.30;;;;;;;25.57;36.18;96701.13;5036291;28;20017;-27
2023/06/19 01:37:28;;;;;;;2.97;2.55;;;;;;;25.33;37.00;96712.97;5036414;28;20439;-26
2023/06/19 01:39:56;;;;;;;6.05;2.58;;;;;;;25.42;36.62;96707.06;5041118;28;20045;-27
2023/06/19 01:42:22;;;;;;;5.28;2.90;;;;;;;25.36;36.00;96701.56;5037792;28;20056;-26
2023/06/19 01:44:49;;;;;;;3.10;2.80;;;;;;;25.36;35.83;96701.56;5042669;28;20375;-26
2023/06/19 01:47:19;;;;;;;4.05;2.90;;;;;;;25.51;35.97;96694.88;5036015;28;20040;-26
2023/06/19 01:49:48;;;;;;;7.50;3.25;;;;;;;25.45;35.64;96694.19;5043303;28;20048;-26
2023/06/19 01:52:14;;;;;;;3.05;2.63;;;;;;;25.34;35.98;96693.03;5035853;28;20018;-28
2023/06/19 01:54:39;;;;;;;2.60;2.33;;;;;;;25.49;35.92;96697.41;5035984;28;20423;-26
2023/06/19 01:57:06;;;;;;;4.57;2.90;;;;;;;25.40;35.40;96693.72;5039214;28;20059;-26
2023/06/19 01:59:31;;;;;;;3.63;3.00;;;;;;;25.41;35.42;96689.66;5038698;28;20017;-26
2023/06/19 02:01:57;;;;;;;3.78;2.80;;;;;;;25.20;35.28;96683.06;5035883;28;20536;-26
2023/06/19 02:04:22;;;;;;;4.28;2.60;;;;;;;25.29;35.60;96687.50;5036028;28;20100;-27
2023/06/19 02:06:48;;;;;;;4.30;2.83;;;;;;;25.37;35.19;96694.75;5035723;28;20052;-26
2023/06/19 02:09:13;;;;;;;3.38;2.80;;;;;;;25.22;35.43;96688.09;5036104;28;20356;-26
2023/06/19 02:11:39;;;;;;;3.80;2.80;;;;;;;25.32;35.05;96684.47;5039807;28;20370;-26
2023/06/19 02:14:04;;;;;;;3.63;2.80;;;;;;;25.28;34.94;96692.31;5035569;28;20514;-27
2023/06/19 02:16:30;;;;;;;3.28;2.97;;;;;;;25.37;34.43;96691.97;5035855;28;20025;-27
2023/06/19 02:18:56;;;;;;;3.83;2.55;;;;;;;25.35;34.67;96694.50;5035178;28;20025;-26
2023/06/19 02:21:22;;;;;;;4.75;2.40;;;;;;;25.33;35.07;96694.28;5035458;28;20025;-26
2023/06/19 02:23:47;;;;;;;3.90;2.78;;;;;;;25.33;34.85;96693.53;5035419;28;20024;-26
2023/06/19 02:26:13;;;;;;;5.57;2.67;;;;;;;25.34;35.13;96693.03;5035836;28;20056;-26
2023/06/19 02:28:38;;;;;;;3.40;2.67;;;;;;;25.25;35.51;96693.34;5035858;28;20025;-26
2023/06/19 02:31:04;;;;;;;3.83;2.70;;;;;;;25.27;35.33;96699.13;5035202;28;20022;-26
2023/06/19 02:33:29;;;;;;;2.97;2.60;;;;;;;25.21;35.88;96697.69;5035377;28;20033;-26
2023/06/19 02:35:58;;;;;;;3.50;2.80;;;;;;;25.10;35.70;96692.94;5035194;28;20026;-26
2023/06/19 02:38:29;;;;;;;4.43;2.55;;;;;;;25.28;36.05;96695.09;5034863;28;20502;-27
2023/06/19 02:40:54;;;;;;;3.72;2.90;;;;;;;25.25;35.66;96696.13;5034789;28;20049;-26
2023/06/19 02:43:20;;;;;;;2.70;2.45;;;;;;;25.21;36.42;96692.88;5035563;28;20017;-26
2023/06/19 02:45:45;;;;;;;4.35;2.75;;;;;;;25.22;36.40;96690.88;5042290;28;20018;-26
2023/06/19 02:48:11;;;;;;;3.20;2.60;;;;;;;25.15;36.70;96703.28;5034791;28;20057;-27
2023/06/19 02:50:36;;;;;;;4.25;2.50;;;;;;;24.94;37.35;96707.72;5034736;28;20108;-26
2023/06/19 02:53:01;;;;;;;3.28;2.38;;;;;;;24.99;37.57;96704.91;5034929;28;20352;-26
2023/06/19 02:55:27;;;;;;;5.20;2.78;;;;;;;24.90;38.02;96710.75;5036657;28;20029;-26
2023/06/19 02:57:53;;;;;;;4.00;2.78;;;;;;;24.82;38.37;96703.50;5037139;28;20025;-27
2023/06/19 03:00:19;;;;;;;3.78;2.88;;;;;;;24.93;38.26;96706.97;5039160;28;20025;-27
2023/06/19 03:02:45;;;;;;;3.40;2.78;;;;;;;25.01;38.50;96707.16;5042208;28;20103;-26
2023/06/19 03:05:12;;;;;;;3.47;2.63;;;;;;;25.16;37.79;96710.31;5048006;28;20115;-26
2023/06/19 03:07:38;;;;;;;3.40;3.08;;;;;;;24.94;38.45;96704.97;5034227;28;20446;-27
2023/06/19 03:10:03;;;;;;;5.18;2.42;;;;;;;24.99;38.31;96701.38;5034765;28;20022;-26
2023/06/19 03:12:29;;;;;;;2.60;2.40;;;;;;;25.02;38.69;96703.88;5034286;28;20036;-26
2023/06/19 03:14:54;;;;;;;3.30;2.60;;;;;;;25.04;38.58;96712.44;5034732;28;20025;-26
2023/06/19 03:17:20;;;;;;;4.18;2.83;;;;;;;25.00;38.56;96717.50;5034642;28;20075;-27
2023/06/19 03:19:45;;;;;;;4.03;2.75;;;;;;;25.04;38.79;96714.47;5034347;28;20025;-26
2023/06/19 03:22:10;;;;;;;4.93;3.33;;;;;;;25.15;38.20;96713.63;5034349;28;20108;-27
2023/06/19 03:24:36;;;;;;;4.07;2.42;;;;;;;25.24;38.19;96716.81;5034237;28;20021;-26
2023/06/19 03:27:01;;;;;;;4.13;2.70;;;;;;;24.90;38.46;96715.53;5033989;28;20043;-26
2023/06/19 03:29:26;;;;;;;5.35;2.85;;;;;;;25.06;38.18;96714.69;5033992;28;20423;-28
2023/06/19 03:31:52;;;;;;;3.67;2.75;;;;;;;25.02;38.04;96714.22;5034471;28;20583;-27
2023/06/19 03:34:17;;;;;;;4.57;2.70;;;;;;;24.99;38.13;96718.03;5034433;28;20025;-26
2023/06/19 03:36:43;;;;;;;3.85;2.70;;;;;;;24.94;37.91;96718.81;5033973;28;20360;-26
2023/06/19 03:39:08;;;;;;;3.60;2.78;;;;;;;25.02;37.03;96712.19;5033834;28;20025;-26
2023/06/19 03:41:34;;;;;;;4.05;3.10;;;;;;;25.24;36.60;96722.38;5033797;28;20021;-26
2023/06/19 03:43:59;;;;;;;3.88;2.65;;;;;;;25.18;37.08;96723.69;5034586;28;20021;-26
2023/06/19 03:46:24;;;;;;;5.07;2.50;;;;;;;25.27;36.91;96721.34;5034277;28;20025;-26
2023/06/19 03:48:50;;;;;;;2.70;2.50;;;;;;;25.03;37.92;96718.50;5034059;28;20022;-26
2023/06/19 03:51:15;;;;;;;4.60;2.45;;;;;;;25.14;38.30;96723.22;5033945;28;20025;-26
2023/06/19 03:53:42;;;;;;;4.50;2.70;;;;;;;25.01;38.64;96726.59;5033755;28;20078;-26
2023/06/19 03:56:07;;;;;;;6.07;2.70;;;;;;;25.09;38.75;96730.31;5033436;28;20433;-26
2023/06/19 03:58:33;;;;;;;3.45;2.78;;;;;;;25.16;39.00;96726.97;5040548;28;20017;-27
2023/06/19 04:00:58;;;;;;;3.58;2.97;;;;;;;25.16;38.57;96729.75;5033672;28;20075;-27
2023/06/19 04:03:24;;;;;;;5.13;3.08;;;;;;;25.11;38.82;96718.69;5034395;28;20013;-27
2023/06/19 04:05:49;;;;;;;3.58;2.60;;;;;;;25.11;38.26;96724.22;5034222;28;20017;-27
2023/06/19 04:08:15;;;;;;;4.40;2.80;;;;;;;25.34;38.16;96726.34;5047547;28;20071;-26
2023/06/19 04:10:41;;;;;;;3.30;2.80;;;;;;;25.19;37.93;96720.41;5033463;28;20031;-26
2023/06/19 04:13:06;;;;;;;5.45;2.90;;;;;;;24.89;37.79;96733.44;5033511;28;20108;-26
2023/06/19 04:15:35;;;;;;;3.42;2.90;;;;;;;25.17;37.20;96730.50;5033538;28;20062;-26
2023/06/19 04:18:01;;;;;;;4.18;2.90;;;;;;;25.10;37.61;96728.31;5033252;28;20037;-27
2023/06/19 04:20:27;;;;;;;5.57;3.03;;;;;;;25.02;37.97;96728.09;5041059;28;20025;-26
2023/06/19 04:22:52;;;;;;;5.32;3.20;;;;;;;25.06;37.88;96723.03;5033350;28;20075;-26
2023/06/19 04:25:18;;;;;;;3.35;2.70;;;;;;;24.98;38.43;96725.59;5033418;28;20109;-28
2023/06/19 04:27:44;;;;;;;6.38;2.83;;;;;;;25.04;38.78;96731.09;5033175;28;20037;-26
2023/06/19 04:30:10;;;;;;;3.67;2.83;;;;;;;25.14;38.65;96723.22;5033359;28;20025;-27
2023/06/19 04:32:36;;;;;;;5.90;2.75;;;;;;;25.18;38.65;96724.44;5033510;28;20036;-28
2023/06/19 04:35:02;;;;;;;6.80;3.33;;;;;;;25.05;38.95;96730.59;5033354;28;20459;-26
2023/06/19 04:37:27;;;;;;;5.53;2.85;;;;;;;24.99;39.16;96729.13;5033809;28;20111;-26
2023/06/19 04:39:53;;;;;;;4.07;2.90;;;;;;;24.95;39.35;96721.09;5032856;28;20049;-26
2023/06/19 04:42:19;;;;;;;3.63;2.80;;;;;;;24.97;39.19;96729.63;5033744;28;20441;-26
2023/06/19 04:44:48;;;;;;;5.45;2.90;;;;;;;25.10;38.72;96726.25;5033231;28;20021;-28
2023/06/19 04:47:15;;;;;;;3.22;2.63;;;;;;;25.01;39.13;96726.59;5034803;28;20029;-26
2023/06/19 04:49:40;;;;;;;3.80;2.75;;;;;;;25.14;39.03;96728.75;5033536;28;20021;-26
2023/06/19 04:52:06;;;;;;;6.82;2.85;;;;;;;25.17;39.27;96733.28;5033488;28;20485;-26
2023/06/19 04:54:34;;;;;;;5.22;3.13;;;;;;;25.24;39.08;96733.47;5032696;28;20030;-26
2023/06/19 04:57:00;;;;;;;5.57;3.20;;;;;;;25.14;39.12;96728.75;5046317;28;20025;-26
2023/06/19 04:59:26;;;;;;;3.85;2.90;;;;;;;25.10;39.13;96723.47;5032955;28;20052;-26
2023/06/19 05:01:53;;;;;;;5.78;3.20;;;;;;;25.03;39.84;96724.81;5033165;28;20033;-26
2023/06/19 05:04:20;;;;;;;6.53;3.45;;;;;;;25.01;39.93;96726.59;5032826;28;20100;-26
2023/06/19 05:06:45;;;;;;;6.88;3.10;;;;;;;25.04;39.34;96728.34;5033301;28;20036;-27
2023/06/19 05:09:11;;;;;;;5.72;3.28;;;;;;;24.93;39.82;96722.88;5039984;28;20017;-26
2023/06/19 05:11:37;;;;;;;5.43;3.40;;;;;;;25.23;39.34;96720.84;5033077;28;20091;-26
2023/06/19 05:14:02;;;;;;;3.97;3.08;;;;;;;25.30;39.23;96719.56;5032920;28;20144;-26
2023/06/19 05:16:28;;;;;;;3.95;3.13;;;;;;;25.28;39.19;96717.28;5033003;28;20108;-26
2023/06/19 05:18:53;;;;;;;5.45;3.03;;;;;;;25.14;39.89;96723.22;5032924;28;20058;-26
2023/06/19 05:21:19;;;;;;;3.60;2.88;;;;;;;25.18;39.74;96721.66;5032976;28;20100;-27
2023/06/19 05:23:47;;;;;;;4.15;3.30;;;;;;;25.27;40.11;96728.91;5032605;28;20021;-26
2023/06/19 05:26:13;;;;;;;3.67;2.80;;;;;;;25.06;40.20;96717.47;5039908;28;20083;-27
2023/06/19 05:28:39;;;;;;;4.03;3.38;;;;;;;25.20;40.06;96721.91;5032774;28;20036;-26
2023/06/19 05:31:04;;;;;;;4.72;3.05;;;;;;;25.18;39.96;96720.91;5032823;28;20465;-26
2023/06/19 05:33:30;;;;;;;3.33;2.65;;;;;;;25.07;40.29;96718.22;5036162;28;20025;-26
2023/06/19 05:35:55;;;;;;;5.55;2.90;;;;;;;25.19;39.98;96719.66;5036028;28;20047;-27
2023/06/19 05:38:23;;;;;;;4.97;2.83;;;;;;;25.27;40.05;96735.22;5036550;28;20022;-26
2023/06/19 05:40:50;;;;;;;2.90;2.65;;;;;;;25.05;40.29;96727.81;5036298;28;20045;-26
2023/06/19 05:43:15;;;;;;;4.43;3.00;;;;;;;24.98;40.43;96730.38;5037027;28;20040;-26
2023/06/19 05:45:40;;;;;;;3.55;3.17;;;;;;;25.05;39.93;96724.28;5035900;28;20029;-27
2023/06/19 05:48:06;;;;;;;4.32;3.00;;;;;;;25.17;39.42;96728.50;5036128;28;20018;-26
2023/06/19 05:50:31;;;;;;;3.88;2.80;;;;;;;25.32;39.76;96717.78;5036132;28;20367;-26
2023/06/19 05:52:57;;;;;;;3.25;2.95;;;;;;;25.11;40.01;96713.13;5035669;28;20391;-27
2023/06/19 05:55:24;;;;;;;3.88;3.00;;;;;;;25.15;40.04;96719.91;5036368;28;20061;-28
2023/06/19 05:57:50;;;;;;;4.90;3.08;;;;;;;25.28;40.23;96722.84;5036389;28;20049;-27
2023/06/19 06:00:16;;;;;;;3.25;2.80;;;;;;;25.26;40.80;96714.28;5035770;28;20107;-28
2023/06/19 06:02:42;;;;;;;4.95;3.00;;;;;;;25.27;41.18;96718.56;5035735;28;20407;-26
2023/06/19 06:05:08;;;;;;;3.47;3.17;;;;;;;25.21;41.96;96717.13;5035768;28;20017;-26
2023/06/19 06:07:34;;;;;;;3.83;3.03;;;;;;;25.30;41.42;96709.19;5038622;28;20108;-26
2023/06/19 06:10:00;;;;;;;5.55;2.97;;;;;;;25.08;41.93;96706.63;5036265;28;20052;-26
2023/06/19 06:12:25;;;;;;;4.70;3.45;;;;;;;25.32;41.58;96703.88;5035873;28;20072;-27
2023/06/19 06:14:51;;;;;;;5.15;3.13;;;;;;;25.36;42.02;96709.88;5035818;28;20100;-26
2023/06/19 06:17:16;;;;;;;5.88;3.15;;;;;;;25.25;42.29;96712.78;5043617;28;20447;-26
2023/06/19 06:19:42;;;;;;;5.88;3.55;;;;;;;25.29;42.03;96718.03;5035800;28;20112;-27
2023/06/19 06:22:07;;;;;;;4.68;3.30;;;;;;;25.38;42.09;96712.91;5035503;28;20028;-27
2023/06/19 06:24:32;;;;;;;4.60;3.78;;;;;;;25.33;42.64;96716.50;5036186;28;20060;-26
2023/06/19 06:26:58;;;;;;;4.00;3.42;;;;;;;25.34;42.50;96726.34;5035677;28;20022;-27
2023/06/19 06:29:24;;;;;;;4.82;3.38;;;;;;;25.42;42.64;96729.28;5042877;28;20387;-27
2023/06/19 06:31:52;;;;;;;5.03;3.22;;;;;;;25.49;42.32;96723.16;5035361;28;20022;-27
2023/06/19 06:34:19;;;;;;;4.45;3.60;;;;;;;25.53;42.13;96731.22;5035100;28;20036;-26
2023/06/19 06:36:44;;;;;;;5.93;3.70;;;;;;;25.48;42.86;96723.66;5035113;28;20025;-26
2023/06/19 06:39:10;;;;;;;3.85;3.45;;;;;;;25.54;42.41;96725.13;5034731;28;20021;-26
2023/06/19 06:41:36;;;;;;;4.07;3.17;;;;;;;25.47;42.92;96722.19;5042399;28;20462;-26
2023/06/19 06:44:01;;;;;;;4.28;3.50;;;;;;;25.55;42.40;96731.44;5034457;28;20017;-27
2023/06/19 06:46:27;;;;;;;6.15;3.70;;;;;;;25.57;42.67;96732.44;5034886;28;20021;-26
2023/06/19 06:48:52;;;;;;;5.47;3.42;;;;;;;25.59;42.53;96738.19;5042912;28;20451;-27
2023/06/19 06:51:18;;;;;;;4.70;3.65;;;;;;;25.47;42.97;96734.03;5034867;28;20523;-27
2023/06/19 06:53:43;;;;;;;6.30;3.45;;;;;;;25.44;43.12;96728.78;5034704;28;20033;-27
2023/06/19 06:56:09;;;;;;;4.93;3.00;;;;;;;25.60;42.93;96739.72;5035184;28;20017;-26
2023/06/19 06:58:34;;;;;;;4.75;3.03;;;;;;;25.65;42.90;96736.16;5035202;28;20490;-26
2023/06/19 07:00:59;;;;;;;4.90;3.72;;;;;;;25.47;43.11;96736.81;5034835;28;20032;-26
2023/06/19 07:03:25;;;;;;;4.68;3.67;;;;;;;25.65;43.34;96740.97;5034544;28;20021;-27
2023/06/19 07:05:50;;;;;;;4.70;3.78;;;;;;;25.67;42.59;96741.97;5034555;28;20068;-27
2023/06/19 07:08:16;;;;;;;3.45;3.15;;;;;;;25.60;43.45;96738.97;5034518;28;20024;-27
2023/06/19 07:10:41;;;;;;;5.00;3.50;;;;;;;25.72;43.15;96743.91;5034524;28;20074;-27
2023/06/19 07:13:07;;;;;;;7.20;3.30;;;;;;;25.65;43.74;96743.75;5034695;28;20028;-26
2023/06/19 07:15:32;;;;;;;6.40;3.20;;;;;;;25.73;43.41;96741.88;5034715;28;20099;-26
2023/06/19 07:17:58;;;;;;;5.30;3.40;;;;;;;25.64;43.69;96736.69;5034265;28;20108;-27
2023/06/19 07:20:23;;;;;;;4.60;3.40;;;;;;;25.82;43.00;96730.44;5034345;28;20052;-26
2023/06/19 07:22:52;;;;;;;5.35;3.80;;;;;;;25.83;43.53;96745.84;5034325;28;20061;-26
2023/06/19 07:25:18;;;;;;;4.60;3.30;;;;;;;25.87;43.46;96739.97;5035021;28;20039;-26
2023/06/19 07:27:43;;;;;;;4.50;3.15;;;;;;;25.85;43.15;96734.19;5034275;28;20458;-26
2023/06/19 07:30:10;;;;;;;4.15;3.72;;;;;;;25.72;43.59;96743.91;5034777;28;20032;-26
2023/06/19 07:32:36;;;;;;;4.18;3.70;;;;;;;25.72;43.33;96745.94;5034436;28;20029;-26
2023/06/19 07:35:02;;;;;;;4.43;3.33;;;;;;;25.82;43.73;96726.91;5033880;28;20460;-26
2023/06/19 07:37:28;;;;;;;5.40;3.42;;;;;;;25.62;43.94;96728.13;5034196;28;20044;-26
2023/06/19 07:39:53;;;;;;;4.30;3.63;;;;;;;25.84;43.47;96730.66;5033870;28;20045;-27
2023/06/19 07:42:19;;;;;;;5.53;4.10;;;;;;;25.82;43.65;96724.16;5033919;28;20367;-26
2023/06/19 07:44:45;;;;;;;5.10;3.90;;;;;;;25.68;43.42;96726.06;5037043;28;20541;-26
2023/06/19 07:47:11;;;;;;;5.10;4.00;;;;;;;25.95;42.80;96722.22;5037523;28;20467;-26
2023/06/19 07:49:37;;;;;;;6.53;3.95;;;;;;;25.99;42.77;96733.78;5040826;28;20021;-26
2023/06/19 07:52:04;;;;;;;6.05;3.65;;;;;;;25.76;42.87;96722.16;5033822;28;20027;-27
2023/06/19 07:54:29;;;;;;;7.82;3.60;;;;;;;25.66;42.93;96725.81;5033832;28;20029;-26
2023/06/19 07:56:55;;;;;;;5.43;3.60;;;;;;;25.82;42.79;96724.91;5033600;28;20485;-26
2023/06/19 07:59:20;;;;;;;5.22;3.80;;;;;;;25.80;43.08;96721.13;5033635;28;20049;-26
2023/06/19 08:01:46;;;;;;;7.32;4.47;;;;;;;25.76;43.11;96726.97;5041411;28;20028;-26
2023/06/19 08:04:11;;;;;;;7.07;4.18;;;;;;;25.94;42.80;96726.28;5033753;28;20021;-26
2023/06/19 08:06:37;;;;;;;5.22;4.05;;;;;;;25.75;42.86;96708.78;5034158;28;20025;-27
2023/06/19 08:09:02;;;;;;;5.53;4.22;;;;;;;25.81;42.75;96726.16;5036847;28;20040;-26
2023/06/19 08:11:28;;;;;;;7.28;4.38;;;;;;;25.81;42.53;96714.31;5042979;28;20086;-26
2023/06/19 08:13:53;;;;;;;5.10;4.03;;;;;;;25.90;42.57;96714.69;5033343;28;20033;-26
2023/06/19 08:16:19;;;;;;;4.97;3.88;;;;;;;25.77;42.88;96712.56;5033664;28;20367;-26
2023/06/19 08:18:45;;;;;;;9.82;4.50;;;;;;;25.83;43.63;96720.84;5033842;28;20087;-28
2023/06/19 08:21:11;;;;;;;6.72;4.35;;;;;;;25.80;43.85;96721.13;5033739;28;20025;-26
2023/06/19 08:23:43;;;;;;;4.25;3.42;;;;;;;25.86;42.93;96719.78;5033678;28;20025;-26
2023/06/19 08:26:09;;;;;;;6.93;4.30;;;;;;;25.76;43.11;96724.19;5033935;28;20025;-26
2023/06/19 08:28:34;;;;;;;4.68;3.78;;;;;;;25.88;43.01;96722.03;5033529;28;20486;-26
2023/06/19 08:31:00;;;;;;;4.90;4.45;;;;;;;25.86;43.32;96719.03;5033126;28;20517;-27
2023/06/19 08:33:26;;;;;;;5.97;4.18;;;;;;;25.81;43.53;96723.38;5033387;28;20041;-27
2023/06/19 08:35:52;;;;;;;8.88;4.35;;;;;;;25.92;43.89;96725.28;5033426;28;20020;-26
2023/06/19 08:38:18;;;;;;;5.25;4.07;;;;;;;25.81;44.24;96722.63;5033475;28;20494;-27
2023/06/19 08:40:44;;;;;;;6.38;4.45;;;;;;;25.89;44.01;96729.84;5033096;28;20112;-26
2023/06/19 08:43:10;;;;;;;5.10;4.43;;;;;;;25.90;43.96;96727.84;5033131;28;20429;-26
2023/06/19 08:45:35;;;;;;;7.05;4.38;;;;;;;25.98;43.49;96726.72;5032915;28;20532;-26
2023/06/19 08:48:05;;;;;;;5.93;4.40;;;;;;;25.99;43.60;96733.03;5046441;28;20026;-26
2023/06/19 08:50:32;;;;;;;4.75;4.05;;;;;;;25.89;43.20;96726.31;5042236;28;20398;-26
2023/06/19 08:52:58;;;;;;;6.65;4.43;;;;;;;25.87;42.76;96726.84;5036800;28;20108;-26
2023/06/19 08:55:23;;;;;;;6.43;4.47;;;;;;;25.96;42.76;96723.72;5036146;28;20192;-26
2023/06/19 08:57:50;;;;;;;5.03;3.85;;;;;;;26.01;43.19;96725.69;5032972;28;20083;-26
2023/06/19 09:00:29;;;;;;;6.43;4.28;;;;;;;26.04;43.70;96727.44;5033084;28;20033;-26
2023/06/19 09:03:02;;;;;;;6.55;4.30;;;;;;;25.99;43.74;96733.78;5032848;28;20026;-26
2023/06/19 09:05:28;;;;;;;7.97;4.22;;;;;;;26.02;44.01;96732.75;5033094;28;20017;-26
2023/06/19 09:08:00;;;;;;;6.28;5.13;;;;;;;26.02;43.85;96732.75;5043324;28;20021;-26
2023/06/19 09:10:27;;;;;;;6.80;4.55;;;;;;;26.07;43.41;96729.16;5037267;28;20033;-27
2023/06/19 09:13:03;;;;;;;4.63;4.18;;;;;;;26.07;43.57;96734.72;5036570;28;20350;-26
2023/06/19 09:15:34;;;;;;;9.68;5.05;;;;;;;26.04;43.18;96735.00;5036709;28;20022;-26
2023/06/19 09:18:11;;;;;;;5.15;4.25;;;;;;;26.10;43.17;96730.88;5036834;28;20021;-26
2023/06/19 09:20:44;;;;;;;5.93;4.72;;;;;;;26.09;43.71;96734.94;5036486;28;20026;-26
2023/06/19 09:23:11;;;;;;;6.28;4.40;;;;;;;26.10;43.78;96742.00;5036799;28;20036;-26
2023/06/19 09:25:45;;;;;;;6.38;4.80;;;;;;;26.08;43.46;96750.13;5037088;28;20036;-26
2023/06/19 09:28:22;;;;;;;6.13;4.93;;;;;;;26.08;43.46;96741.78;5036528;28;20030;-26
2023/06/19 09:30:58;;;;;;;7.55;5.38;;;;;;;26.06;42.97;96738.78;5036550;28;20099;-26
2023/06/19 09:33:31;;;;;;;6.43;4.90;;;;;;;26.13;43.05;96738.19;5036341;28;20029;-26
2023/06/19 09:36:00;;;;;;;7.68;4.75;;;;;;;26.16;43.40;96741.19;5036581;28;20021;-26
2023/06/19 09:38:46;;;;;;;5.80;5.10;;;;;;;26.13;43.52;96737.41;5036595;28;20030;-26
2023/06/19 09:41:12;;;;;;;8.10;5.45;;;;;;;26.22;43.86;96739.09;5035870;28;20048;-26
2023/06/19 09:43:42;;;;;;;6.07;4.90;;;;;;;26.16;44.18;96741.19;5043362;28;20013;-26
2023/06/19 09:46:08;;;;;;;5.72;4.90;;;;;;;26.17;43.69;96745.47;5035858;28;20025;-26
2023/06/19 09:48:34;;;;;;;6.45;5.20;;;;;;;26.24;44.37;96737.28;5035898;28;20076;-26
2023/06/19 09:51:17;;;;;;;6.88;5.00;;;;;;;26.20;44.66;96736.09;5035953;28;20018;-25
2023/06/19 09:53:49;;;;;;;9.52;5.75;;;;;;;26.24;44.41;96737.28;5036422;28;20028;-26
2023/06/19 09:56:16;;;;;;;7.63;5.00;;;;;;;26.18;44.53;96728.28;5036357;28;20026;-26
2023/06/19 09:58:45;;;;;;;10.48;5.07;;;;;;;26.26;44.80;96731.97;5042947;28;20025;-26
2023/06/19 10:01:12;;;;;;;7.40;5.53;;;;;;;26.20;44.29;96725.72;5035670;28;20021;-26
2023/06/19 10:03:37;;;;;;;7.05;5.20;;;;;;;26.30;43.76;96728.91;5035977;28;20025;-26
2023/06/19 10:06:04;;;;;;;5.65;5.10;;;;;;;26.22;44.11;96725.94;5036173;28;20018;-26
2023/06/19 10:08:41;;;;;;;8.38;5.22;;;;;;;26.28;44.05;96720.34;5035562;28;20064;-26
2023/06/19 10:11:07;;;;;;;8.73;5.50;;;;;;;26.28;43.99;96720.34;5043321;28;20037;-26
2023/06/19 10:13:38;;;;;;;5.88;5.28;;;;;;;26.28;44.52;96720.34;5040931;28;20379;-26
2023/06/19 10:16:04;;;;;;;5.65;4.80;;;;;;;26.27;43.69;96724.38;5036152;28;20129;-26
2023/06/19 10:18:32;;;;;;;6.85;5.18;;;;;;;26.40;43.97;96721.72;5035677;28;20506;-26
2023/06/19 10:20:57;;;;;;;8.45;4.93;;;;;;;26.42;43.77;96724.72;5037821;28;20378;-26
2023/06/19 10:23:28;;;;;;;6.03;5.03;;;;;;;26.40;44.07;96719.69;5042535;28;20029;-26
2023/06/19 10:25:53;;;;;;;6.50;4.80;;;;;;;26.33;44.14;96725.09;5035160;28;20025;-26
2023/06/19 10:28:21;;;;;;;7.10;4.90;;;;;;;26.37;43.96;96722.75;5035854;28;20032;-26
2023/06/19 10:30:55;;;;;;;5.75;4.80;;;;;;;26.39;43.83;96725.75;5035678;28;20068;-26
2023/06/19 10:33:26;;;;;;;5.93;4.80;;;;;;;26.41;43.89;96728.78;5035386;28;20556;-26
2023/06/19 10:35:51;;;;;;;6.07;4.68;;;;;;;26.46;44.06;96730.72;5035101;28;20021;-26
2023/06/19 10:38:17;;;;;;;6.47;5.25;;;;;;;26.52;43.29;96730.66;5035326;28;20021;-26
2023/06/19 10:40:44;;;;;;;6.63;4.90;;;;;;;26.43;43.70;96734.56;5035052;28;20049;-26
2023/06/19 10:43:10;;;;;;;9.73;4.70;;;;;;;26.44;43.63;96728.50;5035203;28;20017;-26
2023/06/19 10:45:36;;;;;;;5.68;4.20;;;;;;;26.43;44.16;96732.53;5042119;28;20386;-26
2023/06/19 10:48:03;;;;;;;6.68;4.72;;;;;;;26.47;44.06;96724.63;5035299;28;20021;-26
2023/06/19 10:50:29;;;;;;;6.15;4.47;;;;;;;26.38;44.32;96724.25;5035158;28;20033;-26
2023/06/19 10:52:54;;;;;;;4.82;4.22;;;;;;;26.47;43.38;96726.66;5034793;28;20060;-26
2023/06/19 10:55:21;;;;;;;4.93;4.43;;;;;;;26.46;43.43;96734.25;5037191;28;20029;-26
2023/06/19 10:57:47;;;;;;;4.57;4.15;;;;;;;26.50;43.56;96724.88;5035158;28;20070;-26
2023/06/19 11:00:29;;;;;;;4.78;4.30;;;;;;;26.55;43.19;96735.19;5035137;28;20021;-26
2023/06/19 11:02:58;;;;;;;5.53;4.35;;;;;;;26.64;43.40;96735.53;5036681;28;20025;-27
2023/06/19 11:05:26;;;;;;;6.50;4.68;;;;;;;26.56;43.39;96743.00;5039114;28;20032;-26
2023/06/19 11:07:53;;;;;;;4.88;4.32;;;;;;;26.52;43.79;96736.97;5035185;28;20034;-26
2023/06/19 11:10:20;;;;;;;6.32;4.00;;;;;;;26.55;43.02;96755.41;5034609;28;20025;-26
2023/06/19 11:12:45;;;;;;;4.35;3.95;;;;;;;26.57;43.62;96749.31;5034706;28;20053;-26
2023/06/19 11:15:11;;;;;;;5.30;4.20;;;;;;;26.61;42.89;96755.31;5034562;28;20100;-26
2023/06/19 11:17:37;;;;;;;6.32;4.10;;;;;;;26.59;42.90;96750.28;5034780;28;20061;-26
2023/06/19 11:20:05;;;;;;;5.15;4.50;;;;;;;26.57;42.57;96752.09;5034839;28;20025;-26
2023/06/19 11:22:38;;;;;;;6.47;3.83;;;;;;;26.61;42.01;96744.94;5034553;28;20036;-26
2023/06/19 11:25:05;;;;;;;5.50;3.90;;;;;;;26.63;42.19;96741.63;5034244;28;20074;-27
2023/06/19 11:27:31;;;;;;;6.10;4.35;;;;;;;26.61;41.84;96742.16;5034370;28;20451;-26
2023/06/19 11:30:03;;;;;;;5.68;4.25;;;;;;;26.69;42.35;96736.75;5040634;28;20031;-26
2023/06/19 11:32:35;;;;;;;4.57;3.55;;;;;;;26.65;42.75;96736.28;5041694;28;20022;-26